Buoy 55954

sailwx.info

Track history (hours):
 
Tides and Currents Weather Stations Pressure Air Temp Water Temp Dewpoint Dewpoint Depression Visibility Wind Speed Wind Dir Waves Ship Positions

Drifting buoy 55954

Last reported at 2018-Feb-22 05:00 UTC. Time now 2018-Feb-22 07:22 UTC.
Position S 33°28' E 161°07'.

Water temperature 24.6 ° C

Date/timePositionNaut miles runAvg speedWind from/ knotsBaromVisibWave heightAir tempDewpointWater temp
2018-Feb-22 05:00S 33°28' E 161°07'0 0.0 24.6
2018-Feb-21 23:00S 33°28' E 161°07'3 3.1 24.5
2018-Feb-21 22:00S 33°30' E 161°10'3 3.1 24.4
2018-Feb-21 21:00S 33°32' E 161°12'0 0.0 24.5
2018-Feb-21 20:00S 33°32' E 161°12'4 2.2 24.4
2018-Feb-21 18:00S 33°36' E 161°15'3 1.3 24.4
2018-Feb-21 16:00S 33°38' E 161°16'0 0.0 24.4
2018-Feb-21 15:00S 33°38' E 161°16'0 0.0 24.4
2018-Feb-21 14:00S 33°38' E 161°16'5 2.5 24.4
2018-Feb-21 12:00S 33°41' E 161°22'2 2.3 24.5
2018-Feb-21 11:00S 33°42' E 161°24'0 0.5 24.5
2018-Feb-21 10:00S 33°42' E 161°25'1 0.8 24.5
2018-Feb-21 09:00S 33°43' E 161°25'2 2.3 24.6
2018-Feb-21 08:00S 33°44' E 161°27'1 1.2 24.6
2018-Feb-21 07:00S 33°45' E 161°28'4 4.2 24.6
2018-Feb-21 06:00S 33°47' E 161°32'1313.2 24.6
2018-Feb-21 05:00S 33°59' E 161°39'0 0.0 24.6
2018-Feb-20 23:00S 33°59' E 161°39'3 1.5 24.6
2018-Feb-20 21:00S 34°02' E 161°40'2 2.5 24.6
2018-Feb-20 20:00S 34°05' E 161°40'2 1.2 24.5
2018-Feb-20 18:00S 34°07' E 161°41'2 2.5 24.5
2018-Feb-20 17:00S 34°10' E 161°41'0 0.0 24.6
2018-Feb-20 16:00S 34°10' E 161°41'0 0.0 24.5
2018-Feb-20 15:00S 34°10' E 161°41'5 1.7 24.6
2018-Feb-20 12:00S 34°14' E 161°45'2 2.5 24.6
2018-Feb-20 11:00S 34°16' E 161°46'1 0.8 24.6
2018-Feb-20 10:00S 34°17' E 161°46'2 2.5 24.6
2018-Feb-20 09:00S 34°19' E 161°47'1 0.8 24.6
2018-Feb-20 08:00S 34°20' E 161°46'4 3.6 24.6
2018-Feb-20 07:00S 34°23' E 161°49'0 0.0 24.6
2018-Feb-20 06:00S 34°23' E 161°49'1 1.3 24.6
2018-Feb-20 05:00S 34°24' E 161°48'0 0.0 24.6
2018-Feb-20 04:00S 34°24' E 161°48'13 2.5 24.7
2018-Feb-19 23:00S 34°37' E 161°47'0 0.0 24.7
2018-Feb-19 22:00S 34°37' E 161°47'2 1.6 24.7
2018-Feb-19 21:00S 34°38' E 161°49'1 1.3 24.8
2018-Feb-19 20:00S 34°39' E 161°48'2 1.9 24.8
2018-Feb-19 19:00S 34°41' E 161°47'2 2.4 24.9
2018-Feb-19 18:00S 34°43' E 161°47'0 0.0 24.8
2018-Feb-19 17:00S 34°43' E 161°47'3 3.0 24.8
2018-Feb-19 16:00S 34°46' E 161°47'0 0.0 24.8
2018-Feb-19 15:00S 34°46' E 161°47'4 4.2 24.9
2018-Feb-19 14:00S 34°50' E 161°47'3 1.3 24.9
2018-Feb-19 12:00S 34°53' E 161°49'0 0.0 25.0
2018-Feb-19 11:00S 34°53' E 161°49'1 0.8 25.0
2018-Feb-19 10:00S 34°53' E 161°49'3 2.8 25.1
2018-Feb-19 09:00S 34°56' E 161°51'0 0.0 25.1
2018-Feb-19 08:00S 34°56' E 161°51'5 2.5 25.2
2018-Feb-19 06:00S 34°59' E 161°55'3 3.2 25.3
2018-Feb-19 05:00S 35°02' E 161°56'0 0.0 25.3
2018-Feb-19 04:00S 35°02' E 161°56'0 0.0 25.4
2018-Feb-19 03:00S 35°02' E 161°56'8 2.0 25.4
2018-Feb-18 23:00S 35°10' E 161°58'1 1.3 25.4
2018-Feb-18 22:00S 35°11' E 161°58'3 3.0 25.4
2018-Feb-18 21:00S 35°14' E 161°59'0 0.0 25.5
2018-Feb-18 20:00S 35°14' E 161°59'1 1.2 25.5
2018-Feb-18 19:00S 35°16' E 161°59'4 1.8 25.5
2018-Feb-18 17:00S 35°19' E 161°58'3 2.6 25.5
2018-Feb-18 16:00S 35°22' E 161°57'0 0.0 25.5
2018-Feb-18 15:00S 35°22' E 161°57'5 1.8 25.5
2018-Feb-18 12:00S 35°26' E 161°54'1 1.5 25.5
2018-Feb-18 11:00S 35°26' E 161°52'2 2.0 25.5
2018-Feb-18 10:00S 35°27' E 161°55'1 0.8 25.4
2018-Feb-18 09:00S 35°28' E 161°54'2 1.6 25.4
2018-Feb-18 08:00S 35°28' E 161°52'0 0.0 25.4
2018-Feb-18 07:00S 35°28' E 161°52'2 1.9 25.4
2018-Feb-18 06:00S 35°30' E 161°53'1 0.8 25.4
2018-Feb-18 05:00S 35°31' E 161°53'1 0.8 25.4
2018-Feb-18 04:00S 35°31' E 161°53'5 0.8 25.4
2018-Feb-17 22:00S 35°36' E 161°51'0 0.0 25.2
2018-Feb-17 21:00S 35°36' E 161°51'1 1.3 25.1
2018-Feb-17 20:00S 35°37' E 161°50'1 0.6 25.1
2018-Feb-17 18:00S 35°38' E 161°50'0 0.5 25.1
2018-Feb-17 17:00S 35°38' E 161°49'2 1.6 25.1
2018-Feb-17 16:00S 35°39' E 161°47'3 0.8 25.1
2018-Feb-17 12:00S 35°40' E 161°44'1 1.2 25.1
2018-Feb-17 11:00S 35°39' E 161°44'1 0.8 25.2
2018-Feb-17 10:00S 35°40' E 161°44'1 0.8 25.2
2018-Feb-17 09:00S 35°39' E 161°44'0 0.5 25.2
2018-Feb-17 08:00S 35°39' E 161°43'2 1.6 25.3
2018-Feb-17 07:00S 35°40' E 161°45'1 1.1 25.3
2018-Feb-17 06:00S 35°40' E 161°44'0 0.0 25.4
2018-Feb-17 05:00S 35°40' E 161°44'4 3.6 25.4
2018-Feb-17 04:00S 35°44' E 161°44'0 0.0 25.4
2018-Feb-16 23:00S 35°44' E 161°44'1 1.0 25.4
2018-Feb-16 22:00S 35°44' E 161°43'1 0.6 25.3
2018-Feb-16 21:00S 35°44' E 161°43'1 1.1 25.3
2018-Feb-16 20:00S 35°45' E 161°41'2 1.1 25.2
2018-Feb-16 18:00S 35°46' E 161°39'0 0.0 25.2
2018-Feb-16 17:00S 35°46' E 161°39'2 1.5 25.3
2018-Feb-16 16:00S 35°45' E 161°38'0 0.0 25.3
2018-Feb-16 15:00S 35°45' E 161°38'4 1.4 25.3
2018-Feb-16 12:00S 35°43' E 161°34'1 0.8 25.3
2018-Feb-16 11:00S 35°42' E 161°33'3 2.5 25.4
2018-Feb-16 10:00S 35°41' E 161°30'1 0.8 25.3
2018-Feb-16 09:00S 35°41' E 161°29'1 1.1 25.3
2018-Feb-16 08:00S 35°40' E 161°28'0 0.0 25.4
2018-Feb-16 07:00S 35°40' E 161°28'1 0.8 25.4
2018-Feb-16 06:00S 35°40' E 161°28'3 3.2 25.4
2018-Feb-16 05:00S 35°38' E 161°24'0 0.0 25.4
2018-Feb-16 04:00S 35°38' E 161°24'9 1.8 25.4
2018-Feb-15 23:00S 35°32' E 161°16'5 2.3 25.3
2018-Feb-15 21:00S 35°29' E 161°11'1 1.3 25.3
2018-Feb-15 20:00S 35°28' E 161°11'2 2.0 25.3
2018-Feb-15 19:00S 35°28' E 161°08'2 1.5 25.3
2018-Feb-15 18:00S 35°26' E 161°07'4 3.9 25.3
2018-Feb-15 17:00S 35°25' E 161°03'0 0.5 25.3
2018-Feb-15 16:00S 35°25' E 161°04'0 0.0 25.3
2018-Feb-15 15:00S 35°25' E 161°04'8 2.5 25.3
2018-Feb-15 12:00S 35°20' E 160°56'5 5.3 25.4
2018-Feb-15 11:00S 35°17' E 160°50'1 0.8 25.4
2018-Feb-15 10:00S 35°18' E 160°50'2 1.5 25.5
2018-Feb-15 09:00S 35°17' E 160°49'0 0.0 25.7
2018-Feb-15 08:00S 35°17' E 160°49'3 2.7 25.8
2018-Feb-15 07:00S 35°15' E 160°46'2 1.5 26.1
2018-Feb-15 06:00S 35°14' E 160°45'2 2.3 26.2
2018-Feb-15 05:00S 35°13' E 160°43'0 0.0 26.4
2018-Feb-15 04:00S 35°13' E 160°43'7 1.4 26.1
2018-Feb-14 23:00S 35°08' E 160°36'2 1.6 25.3
2018-Feb-14 22:00S 35°07' E 160°34'1 1.2 25.0
2018-Feb-14 21:00S 35°07' E 160°33'3 2.5 24.9
2018-Feb-14 20:00S 35°06' E 160°30'1 1.2 24.9
2018-Feb-14 19:00S 35°05' E 160°29'0 0.5 25.0
2018-Feb-14 18:00S 35°05' E 160°28'5 5.5 25.0
2018-Feb-14 17:00S 35°03' E 160°22'0 0.0 25.1
2018-Feb-14 16:00S 35°03' E 160°22'0 0.0 25.1
2018-Feb-14 15:00S 35°03' E 160°22'7 2.4 25.1
2018-Feb-14 12:00S 34°59' E 160°14'4 3.9 25.2
2018-Feb-14 11:00S 34°58' E 160°10'2 1.6 25.3
2018-Feb-14 10:00S 34°57' E 160°08'2 1.6 25.4
2018-Feb-14 09:00S 34°56' E 160°07'3 3.5 25.5
2018-Feb-14 08:00S 34°55' E 160°03'4 2.2 25.5
2018-Feb-14 06:00S 34°53' E 159°58'3 3.2 25.7
2018-Feb-14 05:00S 34°52' E 159°55'0 0.0 25.7
2018-Feb-14 04:00S 34°52' E 159°55'21 5.3 25.8
2018-Feb-14 00:00S 34°38' E 159°34'4 3.9 26.0
2018-Feb-13 23:00S 34°40' E 159°38'4 3.9 25.7
2018-Feb-13 22:00S 34°38' E 159°34'2 1.9 25.3
2018-Feb-13 21:00S 34°37' E 159°34'3 3.1 25.2
2018-Feb-13 20:00S 34°35' E 159°31'2 1.0 25.1
2018-Feb-13 18:00S 34°34' E 159°29'0 0.0 25.1
2018-Feb-13 17:00S 34°34' E 159°29'1312.7 25.1
2018-Feb-13 16:00S 34°27' E 159°16'1 0.3 25.0
2018-Feb-13 12:00S 34°26' E 159°15'0 0.0 25.1
2018-Feb-13 11:00S 34°26' E 159°15'1 0.8 25.1
2018-Feb-13 10:00S 34°25' E 159°14'2 1.6 25.1
2018-Feb-13 09:00S 34°25' E 159°13'2 2.3 25.2
2018-Feb-13 08:00S 34°23' E 159°10'1 1.2 25.3
2018-Feb-13 07:00S 34°23' E 159°09'0 0.5 25.3
2018-Feb-13 06:00S 34°23' E 159°08'2 2.0 25.3
2018-Feb-13 05:00S 34°23' E 159°06'0 0.0 25.3
2018-Feb-13 04:00S 34°23' E 159°06'15 2.4 25.2
2018-Feb-12 22:00S 34°18' E 158°49'3 3.5 25.1
2018-Feb-12 21:00S 34°16' E 158°46'0 0.0 24.8
2018-Feb-12 20:00S 34°16' E 158°46'0 0.5 25.1
2018-Feb-12 19:00S 34°16' E 158°45'6 5.8 25.1
2018-Feb-12 18:00S 34°13' E 158°39'0 0.0 25.3
2018-Feb-12 16:00S 34°13' E 158°39'13 3.2 25.3
2018-Feb-12 12:00S 34°07' E 158°26'1 1.3 25.7
2018-Feb-12 11:00S 34°05' E 158°25'4 3.8 25.8
2018-Feb-12 10:00S 34°03' E 158°22'4 4.2 25.7
2018-Feb-12 09:00S 34°01' E 158°17'0 0.5 25.9
2018-Feb-12 08:00S 34°01' E 158°18'6 6.2 25.9
2018-Feb-12 07:00S 33°59' E 158°11'0 0.0 25.8
2018-Feb-12 06:00S 33°59' E 158°11'0 0.0 25.9
2018-Feb-12 05:00S 33°59' E 158°11'   25.9
Track history (hours):
 
Tides and Currents Weather Stations Pressure Air Temp Water Temp Dewpoint Dewpoint Depression Visibility Wind Speed Wind Dir Waves Ship Positions

Drifting buoy 55954

Last reported at 2018-Feb-22 05:00 UTC. Time now 2018-Feb-22 07:22 UTC.
Position S 33°28' E 161°07'.

Water temperature 24.6 ° C

Date/timePositionNaut miles runAvg speedWind from/ knotsBaromVisibWave heightAir tempDewpointWater temp
2018-Feb-22 05:00S 33°28' E 161°07'0 0.0 24.6
2018-Feb-21 23:00S 33°28' E 161°07'3 3.1 24.5
2018-Feb-21 22:00S 33°30' E 161°10'3 3.1 24.4
2018-Feb-21 21:00S 33°32' E 161°12'0 0.0 24.5
2018-Feb-21 20:00S 33°32' E 161°12'4 2.2 24.4
2018-Feb-21 18:00S 33°36' E 161°15'3 1.3 24.4
2018-Feb-21 16:00S 33°38' E 161°16'0 0.0 24.4
2018-Feb-21 15:00S 33°38' E 161°16'0 0.0 24.4
2018-Feb-21 14:00S 33°38' E 161°16'5 2.5 24.4
2018-Feb-21 12:00S 33°41' E 161°22'2 2.3 24.5
2018-Feb-21 11:00S 33°42' E 161°24'0 0.5 24.5
2018-Feb-21 10:00S 33°42' E 161°25'1 0.8 24.5
2018-Feb-21 09:00S 33°43' E 161°25'2 2.3 24.6
2018-Feb-21 08:00S 33°44' E 161°27'1 1.2 24.6
2018-Feb-21 07:00S 33°45' E 161°28'4 4.2 24.6
2018-Feb-21 06:00S 33°47' E 161°32'1313.2 24.6
2018-Feb-21 05:00S 33°59' E 161°39'0 0.0 24.6
2018-Feb-20 23:00S 33°59' E 161°39'3 1.5 24.6
2018-Feb-20 21:00S 34°02' E 161°40'2 2.5 24.6
2018-Feb-20 20:00S 34°05' E 161°40'2 1.2 24.5
2018-Feb-20 18:00S 34°07' E 161°41'2 2.5 24.5
2018-Feb-20 17:00S 34°10' E 161°41'0 0.0 24.6
2018-Feb-20 16:00S 34°10' E 161°41'0 0.0 24.5
2018-Feb-20 15:00S 34°10' E 161°41'5 1.7 24.6
2018-Feb-20 12:00S 34°14' E 161°45'2 2.5 24.6
2018-Feb-20 11:00S 34°16' E 161°46'1 0.8 24.6
2018-Feb-20 10:00S 34°17' E 161°46'2 2.5 24.6
2018-Feb-20 09:00S 34°19' E 161°47'1 0.8 24.6
2018-Feb-20 08:00S 34°20' E 161°46'4 3.6 24.6
2018-Feb-20 07:00S 34°23' E 161°49'0 0.0 24.6
2018-Feb-20 06:00S 34°23' E 161°49'1 1.3 24.6
2018-Feb-20 05:00S 34°24' E 161°48'0 0.0 24.6
2018-Feb-20 04:00S 34°24' E 161°48'13 2.5 24.7
2018-Feb-19 23:00S 34°37' E 161°47'0 0.0 24.7
2018-Feb-19 22:00S 34°37' E 161°47'2 1.6 24.7
2018-Feb-19 21:00S 34°38' E 161°49'1 1.3 24.8
2018-Feb-19 20:00S 34°39' E 161°48'2 1.9 24.8
2018-Feb-19 19:00S 34°41' E 161°47'2 2.4 24.9
2018-Feb-19 18:00S 34°43' E 161°47'0 0.0 24.8
2018-Feb-19 17:00S 34°43' E 161°47'3 3.0 24.8
2018-Feb-19 16:00S 34°46' E 161°47'0 0.0 24.8
2018-Feb-19 15:00S 34°46' E 161°47'4 4.2 24.9
2018-Feb-19 14:00S 34°50' E 161°47'3 1.3 24.9
2018-Feb-19 12:00S 34°53' E 161°49'0 0.0 25.0
2018-Feb-19 11:00S 34°53' E 161°49'1 0.8 25.0
2018-Feb-19 10:00S 34°53' E 161°49'3 2.8 25.1
2018-Feb-19 09:00S 34°56' E 161°51'0 0.0 25.1
2018-Feb-19 08:00S 34°56' E 161°51'5 2.5 25.2
2018-Feb-19 06:00S 34°59' E 161°55'3 3.2 25.3
2018-Feb-19 05:00S 35°02' E 161°56'0 0.0 25.3
2018-Feb-19 04:00S 35°02' E 161°56'0 0.0 25.4
2018-Feb-19 03:00S 35°02' E 161°56'8 2.0 25.4
2018-Feb-18 23:00S 35°10' E 161°58'1 1.3 25.4
2018-Feb-18 22:00S 35°11' E 161°58'3 3.0 25.4
2018-Feb-18 21:00S 35°14' E 161°59'0 0.0 25.5
2018-Feb-18 20:00S 35°14' E 161°59'1 1.2 25.5
2018-Feb-18 19:00S 35°16' E 161°59'4 1.8 25.5
2018-Feb-18 17:00S 35°19' E 161°58'3 2.6 25.5
2018-Feb-18 16:00S 35°22' E 161°57'0 0.0 25.5
2018-Feb-18 15:00S 35°22' E 161°57'5 1.8 25.5
2018-Feb-18 12:00S 35°26' E 161°54'1 1.5 25.5
2018-Feb-18 11:00S 35°26' E 161°52'2 2.0 25.5
2018-Feb-18 10:00S 35°27' E 161°55'1 0.8 25.4
2018-Feb-18 09:00S 35°28' E 161°54'2 1.6 25.4
2018-Feb-18 08:00S 35°28' E 161°52'0 0.0 25.4
2018-Feb-18 07:00S 35°28' E 161°52'2 1.9 25.4
2018-Feb-18 06:00S 35°30' E 161°53'1 0.8 25.4
2018-Feb-18 05:00S 35°31' E 161°53'1 0.8 25.4
2018-Feb-18 04:00S 35°31' E 161°53'5 0.8 25.4
2018-Feb-17 22:00S 35°36' E 161°51'0 0.0 25.2
2018-Feb-17 21:00S 35°36' E 161°51'1 1.3 25.1
2018-Feb-17 20:00S 35°37' E 161°50'1 0.6 25.1
2018-Feb-17 18:00S 35°38' E 161°50'0 0.5 25.1
2018-Feb-17 17:00S 35°38' E 161°49'2 1.6 25.1
2018-Feb-17 16:00S 35°39' E 161°47'3 0.8 25.1
2018-Feb-17 12:00S 35°40' E 161°44'1 1.2 25.1
2018-Feb-17 11:00S 35°39' E 161°44'1 0.8 25.2
2018-Feb-17 10:00S 35°40' E 161°44'1 0.8 25.2
2018-Feb-17 09:00S 35°39' E 161°44'0 0.5 25.2
2018-Feb-17 08:00S 35°39' E 161°43'2 1.6 25.3
2018-Feb-17 07:00S 35°40' E 161°45'1 1.1 25.3
2018-Feb-17 06:00S 35°40' E 161°44'0 0.0 25.4
2018-Feb-17 05:00S 35°40' E 161°44'4 3.6 25.4
2018-Feb-17 04:00S 35°44' E 161°44'0 0.0 25.4
2018-Feb-16 23:00S 35°44' E 161°44'1 1.0 25.4
2018-Feb-16 22:00S 35°44' E 161°43'1 0.6 25.3
2018-Feb-16 21:00S 35°44' E 161°43'1 1.1 25.3
2018-Feb-16 20:00S 35°45' E 161°41'2 1.1 25.2
2018-Feb-16 18:00S 35°46' E 161°39'0 0.0 25.2
2018-Feb-16 17:00S 35°46' E 161°39'2 1.5 25.3
2018-Feb-16 16:00S 35°45' E 161°38'0 0.0 25.3
2018-Feb-16 15:00S 35°45' E 161°38'4 1.4 25.3
2018-Feb-16 12:00S 35°43' E 161°34'1 0.8 25.3
2018-Feb-16 11:00S 35°42' E 161°33'3 2.5 25.4
2018-Feb-16 10:00S 35°41' E 161°30'1 0.8 25.3
2018-Feb-16 09:00S 35°41' E 161°29'1 1.1 25.3
2018-Feb-16 08:00S 35°40' E 161°28'0 0.0 25.4
2018-Feb-16 07:00S 35°40' E 161°28'1 0.8 25.4
2018-Feb-16 06:00S 35°40' E 161°28'3 3.2 25.4
2018-Feb-16 05:00S 35°38' E 161°24'0 0.0 25.4
2018-Feb-16 04:00S 35°38' E 161°24'9 1.8 25.4
2018-Feb-15 23:00S 35°32' E 161°16'5 2.3 25.3
2018-Feb-15 21:00S 35°29' E 161°11'1 1.3 25.3
2018-Feb-15 20:00S 35°28' E 161°11'2 2.0 25.3
2018-Feb-15 19:00S 35°28' E 161°08'2 1.5 25.3
2018-Feb-15 18:00S 35°26' E 161°07'4 3.9 25.3
2018-Feb-15 17:00S 35°25' E 161°03'0 0.5 25.3
2018-Feb-15 16:00S 35°25' E 161°04'0 0.0 25.3
2018-Feb-15 15:00S 35°25' E 161°04'8 2.5 25.3
2018-Feb-15 12:00S 35°20' E 160°56'5 5.3 25.4
2018-Feb-15 11:00S 35°17' E 160°50'1 0.8 25.4
2018-Feb-15 10:00S 35°18' E 160°50'2 1.5 25.5
2018-Feb-15 09:00S 35°17' E 160°49'0 0.0 25.7
2018-Feb-15 08:00S 35°17' E 160°49'3 2.7 25.8
2018-Feb-15 07:00S 35°15' E 160°46'2 1.5 26.1
2018-Feb-15 06:00S 35°14' E 160°45'2 2.3 26.2
2018-Feb-15 05:00S 35°13' E 160°43'0 0.0 26.4
2018-Feb-15 04:00S 35°13' E 160°43'7 1.4 26.1
2018-Feb-14 23:00S 35°08' E 160°36'2 1.6 25.3
2018-Feb-14 22:00S 35°07' E 160°34'1 1.2 25.0
2018-Feb-14 21:00S 35°07' E 160°33'3 2.5 24.9
2018-Feb-14 20:00S 35°06' E 160°30'1 1.2 24.9
2018-Feb-14 19:00S 35°05' E 160°29'0 0.5 25.0
2018-Feb-14 18:00S 35°05' E 160°28'5 5.5 25.0
2018-Feb-14 17:00S 35°03' E 160°22'0 0.0 25.1
2018-Feb-14 16:00S 35°03' E 160°22'0 0.0 25.1
2018-Feb-14 15:00S 35°03' E 160°22'7 2.4 25.1
2018-Feb-14 12:00S 34°59' E 160°14'4 3.9 25.2
2018-Feb-14 11:00S 34°58' E 160°10'2 1.6 25.3
2018-Feb-14 10:00S 34°57' E 160°08'2 1.6 25.4
2018-Feb-14 09:00S 34°56' E 160°07'3 3.5 25.5
2018-Feb-14 08:00S 34°55' E 160°03'4 2.2 25.5
2018-Feb-14 06:00S 34°53' E 159°58'3 3.2 25.7
2018-Feb-14 05:00S 34°52' E 159°55'0 0.0 25.7
2018-Feb-14 04:00S 34°52' E 159°55'21 5.3 25.8
2018-Feb-14 00:00S 34°38' E 159°34'4 3.9 26.0
2018-Feb-13 23:00S 34°40' E 159°38'4 3.9 25.7
2018-Feb-13 22:00S 34°38' E 159°34'2 1.9 25.3
2018-Feb-13 21:00S 34°37' E 159°34'3 3.1 25.2
2018-Feb-13 20:00S 34°35' E 159°31'2 1.0 25.1
2018-Feb-13 18:00S 34°34' E 159°29'0 0.0 25.1
2018-Feb-13 17:00S 34°34' E 159°29'1312.7 25.1
2018-Feb-13 16:00S 34°27' E 159°16'1 0.3 25.0
2018-Feb-13 12:00S 34°26' E 159°15'0 0.0 25.1
2018-Feb-13 11:00S 34°26' E 159°15'1 0.8 25.1
2018-Feb-13 10:00S 34°25' E 159°14'2 1.6 25.1
2018-Feb-13 09:00S 34°25' E 159°13'2 2.3 25.2
2018-Feb-13 08:00S 34°23' E 159°10'1 1.2 25.3
2018-Feb-13 07:00S 34°23' E 159°09'0 0.5 25.3
2018-Feb-13 06:00S 34°23' E 159°08'2 2.0 25.3
2018-Feb-13 05:00S 34°23' E 159°06'0 0.0 25.3
2018-Feb-13 04:00S 34°23' E 159°06'15 2.4 25.2
2018-Feb-12 22:00S 34°18' E 158°49'3 3.5 25.1
2018-Feb-12 21:00S 34°16' E 158°46'0 0.0 24.8
2018-Feb-12 20:00S 34°16' E 158°46'0 0.5 25.1
2018-Feb-12 19:00S 34°16' E 158°45'6 5.8 25.1
2018-Feb-12 18:00S 34°13' E 158°39'0 0.0 25.3
2018-Feb-12 16:00S 34°13' E 158°39'13 3.2 25.3
2018-Feb-12 12:00S 34°07' E 158°26'1 1.3 25.7
2018-Feb-12 11:00S 34°05' E 158°25'4 3.8 25.8
2018-Feb-12 10:00S 34°03' E 158°22'4 4.2 25.7
2018-Feb-12 09:00S 34°01' E 158°17'0 0.5 25.9
2018-Feb-12 08:00S 34°01' E 158°18'6 6.2 25.9
2018-Feb-12 07:00S 33°59' E 158°11'0 0.0 25.8
2018-Feb-12 06:00S 33°59' E 158°11'0 0.0 25.9
2018-Feb-12 05:00S 33°59' E 158°11'   25.9

Dump ship's entire track history